Time;durP1;ratioP1;P1;durP2;ratioP2;P2;SDS_P1;SDS_P2;PMS_P1;PMS_P2;Temp;Humidity;BMP_temperature;BMP_pressure;BME280_temperature;BME280_humidity;BME280_pressure;Samples;Min_cycle;Max_cycle;Signal;HPM_P1;HPM_P2
2021/01/27 00:00:55;;;;;;;22.50;9.33;;;;;;;1.30;71.50;99836.42;121703;1141;104436;-77
2021/01/27 00:03:24;;;;;;;21.87;9.43;;;;;;;1.29;71.75;99832.03;121737;1141;104351;-79
2021/01/27 00:05:54;;;;;;;20.07;8.00;;;;;;;1.28;71.17;99838.02;121387;1141;104623;-77
2021/01/27 00:08:25;;;;;;;22.03;8.47;;;;;;;1.27;71.44;99833.64;121626;1141;104496;-76
2021/01/27 00:10:54;;;;;;;19.65;8.30;;;;;;;1.26;71.08;99839.59;121718;1141;104404;-77
2021/01/27 00:13:23;;;;;;;22.53;9.13;;;;;;;1.25;71.16;99830.08;121727;1141;104374;-76
2021/01/27 00:15:53;;;;;;;19.70;9.07;;;;;;;1.27;71.49;99843.98;121732;1141;104345;-78
2021/01/27 00:18:22;;;;;;;18.43;7.97;;;;;;;1.27;70.89;99838.81;121665;1141;104338;-77
2021/01/27 00:20:51;;;;;;;19.83;8.17;;;;;;;1.26;71.37;99842.19;121647;1141;104453;-78
2021/01/27 00:23:20;;;;;;;20.53;8.40;;;;;;;1.25;71.48;99846.47;121383;1141;104506;-79
2021/01/27 00:25:51;;;;;;;21.10;7.93;;;;;;;1.27;71.59;99850.85;121702;1141;104430;-77
2021/01/27 00:28:31;;;;;;;18.50;8.10;;;;;;;1.27;71.02;99859.48;121377;1141;104448;-79
2021/01/27 00:31:04;;;;;;;19.43;8.40;;;;;;;1.28;71.39;99852.62;121668;1141;104362;-77
2021/01/27 00:33:37;;;;;;;19.57;8.47;;;;;;;1.27;71.27;99845.69;121382;1141;104403;-79
2021/01/27 00:36:17;;;;;;;18.35;7.58;;;;;;;1.23;70.85;99845.49;121381;1141;104400;-76
2021/01/27 00:38:46;;;;;;;19.77;8.50;;;;;;;1.22;70.84;99837.64;121704;1140;104339;-77
2021/01/27 00:41:15;;;;;;;21.53;9.10;;;;;;;1.21;71.43;99834.14;121718;1141;104314;-77
2021/01/27 00:43:44;;;;;;;17.13;7.40;;;;;;;1.22;71.12;99848.86;121464;1141;104557;-80
2021/01/27 00:46:13;;;;;;;21.40;8.90;;;;;;;1.21;70.74;99835.84;121755;1141;104458;-77
2021/01/27 00:48:42;;;;;;;20.63;8.60;;;;;;;1.21;71.13;99835.84;121741;1140;104341;-77
2021/01/27 00:51:11;;;;;;;18.47;7.37;;;;;;;1.18;71.11;99821.03;121661;1141;104377;-76
2021/01/27 00:53:43;;;;;;;19.97;9.17;;;;;;;1.18;71.23;99825.31;121642;1140;104337;-78
2021/01/27 00:56:15;;;;;;;21.00;8.70;;;;;;;1.19;70.73;99824.53;121770;1141;104445;-77
2021/01/27 00:58:44;;;;;;;18.03;7.53;;;;;;;1.18;71.31;99821.03;121735;1140;104400;-76
2021/01/27 01:01:24;;;;;;;19.75;7.85;;;;;;;1.17;70.81;99819.27;121703;1141;104357;-76
2021/01/27 01:03:53;;;;;;;19.07;8.13;;;;;;;1.16;70.71;99811.42;121330;1140;104499;-77
2021/01/27 01:06:22;;;;;;;19.87;7.90;;;;;;;1.15;70.56;99817.37;121696;1140;104359;-78
2021/01/27 01:08:51;;;;;;;20.30;8.33;;;;;;;1.12;70.52;99827.52;121765;1141;104453;-76
2021/01/27 01:11:20;;;;;;;21.37;8.77;;;;;;;1.10;70.88;99813.62;121739;1141;104338;-78
2021/01/27 01:13:49;;;;;;;19.20;8.17;;;;;;;1.10;70.88;99822.25;121793;1141;104403;-78
2021/01/27 01:16:18;;;;;;;20.50;8.13;;;;;;;1.09;70.92;99820.45;121730;1140;104345;-76
2021/01/27 01:18:47;;;;;;;20.27;8.27;;;;;;;1.09;70.75;99823.04;121727;1140;104413;-75
2021/01/27 01:21:16;;;;;;;18.73;7.27;;;;;;;1.07;71.03;99820.36;121694;1140;104375;-75
2021/01/27 01:23:45;;;;;;;23.73;8.20;;;;;;;1.06;70.59;99816.02;121677;1141;104446;-76
2021/01/27 01:26:14;;;;;;;20.07;7.50;;;;;;;1.05;70.84;99816.80;121733;1141;104463;-76
2021/01/27 01:28:43;;;;;;;20.67;8.60;;;;;;;1.05;70.60;99829.72;121742;1140;104342;-76
2021/01/27 01:31:11;;;;;;;17.87;8.10;;;;;;;1.06;70.75;99816.02;121688;1140;104336;-76
2021/01/27 01:33:40;;;;;;;19.27;7.77;;;;;;;1.05;70.62;99814.22;121656;1141;104618;-77
2021/01/27 01:36:09;;;;;;;18.73;7.73;;;;;;;1.05;70.49;99803.87;121608;1141;104612;-77
2021/01/27 01:38:39;;;;;;;18.00;7.27;;;;;;;1.04;70.76;99804.70;121663;1140;104342;-76
2021/01/27 01:41:08;;;;;;;19.40;7.43;;;;;;;1.05;70.64;99797.83;121728;1140;104338;-75
2021/01/27 01:43:39;;;;;;;19.03;7.60;;;;;;;1.01;70.32;99791.59;121730;1141;104343;-76
2021/01/27 01:46:14;;;;;;;20.70;7.80;;;;;;;1.00;70.48;99788.91;121735;1141;104582;-77
2021/01/27 01:48:46;;;;;;;17.83;7.63;;;;;;;0.99;70.37;99787.11;121697;1141;104341;-75
2021/01/27 01:51:21;;;;;;;17.97;7.37;;;;;;;0.97;70.42;99781.84;121705;1141;104336;-75
2021/01/27 01:53:55;;;;;;;18.87;7.83;;;;;;;0.95;70.52;99779.95;121708;1141;104342;-75
2021/01/27 01:56:26;;;;;;;;;;;;;;;0.93;70.24;99782.45;121745;1141;104349;-75
2021/01/27 01:58:57;;;;;;;18.10;7.45;;;;;;;0.91;70.44;99778.00;121731;1141;104348;-74
2021/01/27 02:01:27;;;;;;;19.70;7.50;;;;;;;0.89;70.30;99777.91;121681;1140;102575;-76
2021/01/27 02:03:56;;;;;;;20.37;8.10;;;;;;;0.89;70.51;99760.70;121613;1141;104362;-76
2021/01/27 02:06:26;;;;;;;18.57;7.60;;;;;;;0.91;70.22;99762.50;121608;1141;104448;-78
2021/01/27 02:08:58;;;;;;;17.90;7.20;;;;;;;0.88;69.90;99758.02;121616;1140;104860;-77
2021/01/27 02:11:47;;;;;;;18.27;7.33;;;;;;;0.86;70.10;99750.18;121319;1141;104406;-78
2021/01/27 02:14:31;;;;;;;20.20;7.50;;;;;;;0.85;70.03;99771.63;121663;1141;104461;-77
2021/01/27 02:17:06;;;;;;;19.45;8.10;;;;;;;0.84;70.44;99758.63;121746;1141;104358;-78
2021/01/27 02:20:15;;;;;;;19.17;7.47;;;;;;;0.85;70.24;99769.05;121741;1141;104452;-74
2021/01/27 02:23:11;;;;;;;20.10;7.60;;;;;;;0.86;70.48;99759.63;121477;1141;104354;-78
2021/01/27 02:26:03;;;;;;;16.83;7.10;;;;;;;0.88;70.36;99758.02;121720;1141;104337;-77
2021/01/27 02:29:03;;;;;;;17.63;7.27;;;;;;;0.85;70.16;99761.30;121458;1141;104370;-78
2021/01/27 02:31:40;;;;;;;17.77;7.57;;;;;;;0.83;69.92;99759.44;121731;1141;104352;-76
2021/01/27 02:34:36;;;;;;;18.27;6.77;;;;;;;0.81;70.22;99766.17;121717;1141;104345;-76
2021/01/27 02:37:09;;;;;;;17.70;7.13;;;;;;;0.80;70.21;99767.00;121718;1141;104339;-77
2021/01/27 02:39:44;;;;;;;17.67;7.20;;;;;;;0.78;69.94;99765.98;121719;1141;104382;-77
2021/01/27 02:42:22;;;;;;;20.57;7.87;;;;;;;0.76;69.82;99776.22;121711;1140;104336;-75
2021/01/27 02:44:58;;;;;;;19.67;7.97;;;;;;;0.75;69.86;99770.95;121708;1140;104354;-76
2021/01/27 02:47:49;;;;;;;19.97;7.40;;;;;;;0.76;70.09;99771.05;121739;1141;104715;-78
2021/01/27 02:50:23;;;;;;;19.97;8.07;;;;;;;0.76;69.95;99765.01;121712;1141;104404;-78
2021/01/27 02:52:57;;;;;;;20.83;8.03;;;;;;;0.76;70.03;99765.01;121749;1141;104458;-76
2021/01/27 02:55:34;;;;;;;16.43;7.50;;;;;;;0.75;70.08;99761.54;121694;1141;104524;-77
2021/01/27 02:58:07;;;;;;;19.40;7.43;;;;;;;0.75;70.05;99766.70;121696;1141;104359;-75
2021/01/27 03:00:40;;;;;;;19.23;8.05;;;;;;;0.75;70.03;99760.62;121712;1141;104352;-78
2021/01/27 03:03:17;;;;;;;18.87;8.17;;;;;;;0.75;69.96;99765.79;121716;1141;104470;-76
2021/01/27 03:05:49;;;;;;;20.10;7.73;;;;;;;0.74;69.90;99767.49;121423;1141;104473;-76
2021/01/27 03:08:22;;;;;;;18.10;7.20;;;;;;;0.74;70.32;99764.03;121662;1141;104505;-76
2021/01/27 03:11:06;;;;;;;18.80;7.20;;;;;;;0.71;69.82;99768.18;121734;1140;104336;-76
2021/01/27 03:13:38;;;;;;;20.37;8.13;;;;;;;0.70;70.08;99765.50;121742;1141;104343;-77
2021/01/27 03:16:14;;;;;;;18.80;7.93;;;;;;;0.70;69.73;99771.58;121690;1141;104436;-77
2021/01/27 03:18:56;;;;;;;19.03;7.20;;;;;;;0.70;70.10;99761.25;121692;1141;104341;-76
2021/01/27 03:21:38;;;;;;;18.93;7.17;;;;;;;0.69;70.03;99762.03;121653;1140;104403;-77
2021/01/27 03:24:17;;;;;;;18.03;7.33;;;;;;;0.70;69.88;99756.09;121722;1140;104351;-76
2021/01/27 03:26:55;;;;;;;17.20;7.20;;;;;;;0.71;69.78;99764.72;121715;1140;104335;-75
2021/01/27 03:29:34;;;;;;;20.07;7.93;;;;;;;0.71;69.99;99757.85;121716;1141;104334;-77
2021/01/27 03:32:10;;;;;;;20.10;8.40;;;;;;;0.73;70.07;99764.81;121623;1141;104501;-77
2021/01/27 03:34:45;;;;;;;18.23;8.03;;;;;;;0.76;70.13;99758.14;121663;1140;104402;-77
2021/01/27 03:37:19;;;;;;;21.53;7.93;;;;;;;0.78;70.25;99763.41;121764;1141;104524;-76
2021/01/27 03:39:53;;;;;;;18.25;7.80;;;;;;;0.77;69.73;99759.05;121451;1141;104409;-75
2021/01/27 03:42:31;;;;;;;17.70;7.50;;;;;;;0.75;69.85;99766.70;121705;1141;104342;-76
2021/01/27 03:45:05;;;;;;;21.47;8.00;;;;;;;0.72;69.76;99751.02;121725;1141;104480;-76
2021/01/27 03:47:40;;;;;;;20.90;8.90;;;;;;;0.73;69.93;99744.16;121664;1141;104844;-77
2021/01/27 03:50:15;;;;;;;23.23;9.13;;;;;;;0.73;69.91;99741.57;121723;1141;104404;-77
2021/01/27 03:52:48;;;;;;;22.10;9.30;;;;;;;0.70;69.82;99747.42;121738;1140;104341;-76
2021/01/27 03:55:25;;;;;;;23.33;10.63;;;;;;;0.68;70.23;99734.42;121728;1140;104435;-76
2021/01/27 03:58:02;;;;;;;24.00;11.03;;;;;;;0.68;70.15;99734.42;121666;1141;104461;-77
2021/01/27 04:00:32;;;;;;;22.00;9.97;;;;;;;0.68;69.92;99731.84;121709;1140;104370;-77
2021/01/27 04:03:08;;;;;;;21.93;9.33;;;;;;;0.69;69.83;99732.75;121730;1141;104335;-77
2021/01/27 04:05:37;;;;;;;22.27;8.80;;;;;;;0.69;69.74;99727.59;121724;1140;104337;-76
2021/01/27 04:08:07;;;;;;;21.97;9.33;;;;;;;0.70;69.70;99716.44;121726;1141;104416;-76
2021/01/27 04:10:39;;;;;;;23.87;9.60;;;;;;;0.71;70.04;99719.12;121700;1141;104400;-76
2021/01/27 04:13:09;;;;;;;21.55;9.35;;;;;;;0.73;69.96;99715.75;121682;1141;104396;-76
2021/01/27 04:15:38;;;;;;;21.70;9.27;;;;;;;0.71;70.13;99711.37;121772;1141;104343;-77
2021/01/27 04:18:07;;;;;;;23.63;10.50;;;;;;;0.71;69.93;99718.23;121682;1140;104474;-77
2021/01/27 04:20:36;;;;;;;21.67;9.17;;;;;;;0.70;69.85;99714.77;121734;1141;104338;-76
2021/01/27 04:23:05;;;;;;;22.30;8.90;;;;;;;0.69;69.97;99719.84;121670;1141;104344;-76
2021/01/27 04:25:34;;;;;;;22.03;9.20;;;;;;;0.67;69.57;99703.33;121575;1141;104348;-77
2021/01/27 04:28:04;;;;;;;22.97;8.57;;;;;;;0.65;69.59;99710.98;121747;1140;104342;-80
2021/01/27 04:30:36;;;;;;;21.10;8.90;;;;;;;0.65;69.91;99707.52;121745;1140;104889;-78
2021/01/27 04:33:07;;;;;;;20.77;8.70;;;;;;;0.63;70.15;99703.96;121662;1140;104370;-78
2021/01/27 04:35:37;;;;;;;22.93;8.77;;;;;;;0.64;70.13;99708.31;121775;1140;104466;-79
2021/01/27 04:38:07;;;;;;;20.43;7.73;;;;;;;0.65;69.67;99712.69;121606;1141;104525;-80
2021/01/27 04:40:38;;;;;;;25.93;11.10;;;;;;;0.63;69.95;99702.27;121616;1140;104455;-79
2021/01/27 04:43:22;;;;;;;28.85;11.05;;;;;;;0.65;69.91;99699.78;121684;1140;104343;-77
2021/01/27 04:45:59;;;;;;;24.13;10.63;;;;;;;0.63;69.81;99694.52;121521;1141;104479;-79
2021/01/27 04:48:36;;;;;;;22.27;9.03;;;;;;;0.64;69.93;99692.81;121689;1141;104348;-78
2021/01/27 04:51:09;;;;;;;21.70;9.17;;;;;;;0.62;69.99;99707.33;121631;1140;104335;-77
2021/01/27 04:54:04;;;;;;;22.40;8.93;;;;;;;0.61;69.77;99700.38;121683;1141;104481;-79
2021/01/27 04:56:57;;;;;;;21.65;8.78;;;;;;;0.61;70.22;99706.45;121689;1141;104355;-78
2021/01/27 04:59:40;;;;;;;24.10;9.83;;;;;;;0.60;70.00;99708.94;121743;1141;104466;-78
2021/01/27 05:02:23;;;;;;;21.77;9.07;;;;;;;0.59;69.88;99717.47;121734;1140;104455;-77
2021/01/27 05:05:00;;;;;;;23.67;9.63;;;;;;;0.57;70.12;99701.00;121581;1141;104920;-77
2021/01/27 05:07:34;;;;;;;20.83;8.83;;;;;;;0.56;70.24;99710.41;121715;1141;104789;-78
2021/01/27 05:10:06;;;;;;;22.33;9.77;;;;;;;0.57;69.99;99703.58;121612;1141;104803;-78
2021/01/27 05:12:42;;;;;;;21.93;10.07;;;;;;;0.59;70.08;99700.27;121595;1141;104836;-77
2021/01/27 05:15:12;;;;;;;24.37;10.23;;;;;;;0.58;70.02;99698.52;121576;1141;104370;-78
2021/01/27 05:17:46;;;;;;;26.07;10.30;;;;;;;0.58;70.07;99719.16;121439;1140;104455;-77
2021/01/27 05:20:17;;;;;;;26.00;9.90;;;;;;;0.60;70.01;99714.09;121336;1141;104499;-79
2021/01/27 05:22:47;;;;;;;21.33;9.10;;;;;;;0.58;69.98;99705.34;121567;1140;104359;-75
2021/01/27 05:25:28;;;;;;;24.43;8.73;;;;;;;0.58;69.90;99703.67;121632;1141;104441;-78
2021/01/27 05:28:00;;;;;;;22.63;9.23;;;;;;;0.58;70.35;99703.67;121669;1141;104486;-74
2021/01/27 05:30:34;;;;;;;22.17;9.43;;;;;;;0.60;69.90;99707.23;121577;1140;104832;-77
2021/01/27 05:33:03;;;;;;;24.25;10.78;;;;;;;0.62;69.94;99709.91;121689;1141;104375;-78
2021/01/27 05:35:36;;;;;;;26.53;10.83;;;;;;;0.61;69.80;99713.28;121677;1141;104343;-77
2021/01/27 05:38:23;;;;;;;21.07;9.63;;;;;;;0.62;69.79;99712.49;121328;1141;104883;-78
2021/01/27 05:41:03;;;;;;;22.23;9.33;;;;;;;0.63;70.01;99717.75;121586;1141;104338;-75
2021/01/27 05:43:32;;;;;;;25.03;11.53;;;;;;;0.64;70.06;99708.31;121703;1141;104446;-76
2021/01/27 05:46:13;;;;;;;27.97;11.67;;;;;;;0.65;69.80;99723.89;121640;1141;104353;-76
2021/01/27 05:48:48;;;;;;;26.60;10.75;;;;;;;0.64;70.00;99709.22;121523;1141;104348;-75
2021/01/27 05:51:30;;;;;;;24.17;9.90;;;;;;;0.63;69.84;99704.84;121583;1140;104351;-75
2021/01/27 05:53:59;;;;;;;22.93;9.57;;;;;;;0.63;69.87;99698.80;121329;1141;105002;-75
2021/01/27 05:56:30;;;;;;;22.77;8.63;;;;;;;0.62;69.88;99684.09;121453;1141;104420;-75
2021/01/27 05:59:07;;;;;;;22.00;9.90;;;;;;;0.63;70.02;99689.35;121617;1141;104353;-76
2021/01/27 06:01:39;;;;;;;19.73;8.53;;;;;;;0.64;69.85;99683.41;121477;1141;104372;-76
2021/01/27 06:04:23;;;;;;;19.93;8.23;;;;;;;0.62;70.15;99687.56;121587;1140;104345;-77
2021/01/27 06:07:04;;;;;;;27.33;9.90;;;;;;;0.61;69.75;99677.13;121435;1141;104383;-76
2021/01/27 06:09:38;;;;;;;27.13;10.97;;;;;;;0.59;69.92;99677.04;121571;1141;104422;-75
2021/01/27 06:12:11;;;;;;;24.52;9.58;;;;;;;0.59;70.10;99681.32;121606;1140;104467;-76
2021/01/27 06:14:41;;;;;;;24.57;10.63;;;;;;;0.58;70.54;99682.11;121412;1141;104483;-78
2021/01/27 06:17:26;;;;;;;22.90;9.63;;;;;;;0.58;70.07;99695.93;121492;1141;104330;-77
2021/01/27 06:20:18;;;;;;;22.57;9.10;;;;;;;0.58;70.15;99695.93;121275;1141;104397;-77
2021/01/27 06:23:18;;;;;;;26.90;10.00;;;;;;;0.59;70.41;99707.14;121031;1141;104403;-78
2021/01/27 06:26:07;;;;;;;27.30;11.57;;;;;;;0.58;70.66;99698.52;121330;1140;104348;-78
2021/01/27 06:28:58;;;;;;;29.20;13.20;;;;;;;0.59;70.40;99707.14;121385;1141;104362;-76
2021/01/27 06:31:44;;;;;;;27.17;11.57;;;;;;;0.55;70.30;99711.23;121218;1141;104471;-77
2021/01/27 06:34:38;;;;;;;25.75;11.00;;;;;;;0.52;70.63;99713.62;121602;1141;104343;-74
2021/01/27 06:37:23;;;;;;;25.12;10.40;;;;;;;0.51;70.62;99709.23;121325;1140;104476;-78
2021/01/27 06:40:04;;;;;;;;;;;;;;;0.49;70.89;99710.84;121552;1141;104367;-75
2021/01/27 06:42:52;;;;;;;24.33;10.80;;;;;;;0.46;70.83;99719.27;121442;1141;104368;-77
2021/01/27 06:45:33;;;;;;;28.37;11.40;;;;;;;0.41;70.88;99712.94;121471;1141;104378;-76
2021/01/27 06:48:26;;;;;;;32.65;13.95;;;;;;;0.37;71.13;99707.48;121193;1141;105337;-78
2021/01/27 06:51:24;;;;;;;28.13;12.67;;;;;;;0.36;71.12;99711.77;120970;1140;104368;-76
2021/01/27 06:54:05;;;;;;;29.57;12.87;;;;;;;0.33;71.33;99712.45;123316;1139;102154;-79
2021/01/27 06:56:57;;;;;;;25.03;11.47;;;;;;;0.35;71.75;99730.61;121471;1141;104436;-78
2021/01/27 06:59:45;;;;;;;27.87;12.07;;;;;;;0.36;71.39;99698.86;121005;1141;104356;-75
2021/01/27 07:02:35;;;;;;;29.67;13.27;;;;;;;0.35;71.04;99682.45;121583;1141;104398;-75
2021/01/27 07:05:15;;;;;;;30.50;12.10;;;;;;;0.39;71.53;99674.91;121274;1140;104373;-77
2021/01/27 07:07:58;;;;;;;33.80;15.30;;;;;;;0.38;71.16;99674.03;122093;1141;104364;-79
2021/01/27 07:10:34;;;;;;;35.15;11.80;;;;;;;0.41;72.53;99683.66;121422;1141;104452;-81
2021/01/27 07:13:17;;;;;;;32.60;13.03;;;;;;;0.38;71.70;99692.09;121232;1141;104847;-77
2021/01/27 07:15:59;;;;;;;30.57;12.07;;;;;;;0.36;71.73;99691.12;121420;1141;104636;-77
2021/01/27 07:18:54;;;;;;;34.07;13.10;;;;;;;0.34;72.23;99683.28;121235;1141;104684;-78
2021/01/27 07:21:32;;;;;;;32.63;14.17;;;;;;;0.32;72.33;99684.84;121408;1140;104458;-80
2021/01/27 07:24:07;;;;;;;32.93;15.77;;;;;;;0.35;72.04;99685.04;121382;1141;104376;-76
2021/01/27 07:26:44;;;;;;;30.87;13.20;;;;;;;0.35;72.40;99687.63;121389;1141;104846;-78
2021/01/27 07:29:21;;;;;;;28.13;13.03;;;;;;;0.33;72.21;99691.80;123312;1139;103155;-79
2021/01/27 07:31:57;;;;;;;30.57;13.73;;;;;;;0.30;72.50;99696.77;123304;1139;102200;-78
2021/01/27 07:34:34;;;;;;;29.03;12.33;;;;;;;0.29;72.10;99713.03;123277;1140;102221;-77
2021/01/27 07:37:17;;;;;;;31.73;14.17;;;;;;;0.31;71.89;99701.15;122358;1140;104336;-79
2021/01/27 07:39:57;;;;;;;32.65;14.55;;;;;;;0.32;72.31;99700.33;123329;1140;102114;-76
2021/01/27 07:42:32;;;;;;;35.53;13.93;;;;;;;0.34;72.96;99695.27;122484;1140;103105;-75
2021/01/27 07:45:10;;;;;;;30.97;14.23;;;;;;;0.33;72.34;99696.09;121195;1141;104432;-79
2021/01/27 07:47:47;;;;;;;31.47;13.67;;;;;;;0.32;72.49;99713.23;121222;1140;104403;-79
2021/01/27 07:50:20;;;;;;;34.70;15.97;;;;;;;0.34;72.73;99710.75;121593;1141;104430;-79
2021/01/27 07:53:06;;;;;;;33.60;14.67;;;;;;;0.33;73.18;99714.15;121359;1140;104338;-79
2021/01/27 07:55:50;;;;;;;30.50;13.70;;;;;;;0.30;72.28;99703.63;121683;1140;104349;-77
2021/01/27 07:58:27;;;;;;;31.70;14.47;;;;;;;0.30;72.99;99714.84;121473;1141;104364;-74
2021/01/27 08:01:03;;;;;;;30.17;14.77;;;;;;;0.31;73.17;99729.53;121548;1141;104579;-76
2021/01/27 08:03:43;;;;;;;30.23;14.03;;;;;;;0.33;72.90;99721.89;121121;1141;104428;-79
2021/01/27 08:06:21;;;;;;;30.40;14.60;;;;;;;0.35;73.03;99715.12;121103;1141;104368;-82
2021/01/27 08:08:55;;;;;;;38.60;16.47;;;;;;;0.34;72.91;99711.67;121002;1141;104969;-82
2021/01/27 08:11:36;;;;;;;35.83;17.10;;;;;;;0.37;73.52;99708.36;121665;1140;104372;-84
2021/01/27 08:14:09;;;;;;;38.03;17.70;;;;;;;0.39;72.75;99709.38;121133;1141;104557;-83
2021/01/27 08:16:41;;;;;;;34.40;16.63;;;;;;;0.43;73.06;99711.34;121304;1141;104423;-83
2021/01/27 08:19:26;;;;;;;34.80;16.60;;;;;;;0.42;73.36;99706.08;121357;1141;104364;-80
2021/01/27 08:22:01;;;;;;;33.60;15.77;;;;;;;0.43;73.59;99708.75;121427;1141;104355;-79
2021/01/27 08:24:58;;;;;;;36.93;17.13;;;;;;;0.44;73.62;99705.39;121527;1140;104382;-80
2021/01/27 08:27:35;;;;;;;36.27;16.57;;;;;;;0.48;73.33;99720.28;121497;1140;104396;-80
2021/01/27 08:30:26;;;;;;;34.47;16.60;;;;;;;0.51;73.32;99714.40;121325;1141;104467;-80
2021/01/27 08:33:24;;;;;;;37.07;16.90;;;;;;;0.56;73.56;99712.99;121529;1141;104388;-80
2021/01/27 08:36:03;;;;;;;32.40;14.93;;;;;;;0.55;73.97;99721.55;121271;1141;104354;-81
2021/01/27 08:38:40;;;;;;;38.50;18.50;;;;;;;0.47;73.34;99720.19;121702;1140;104344;-81
2021/01/27 08:41:35;;;;;;;32.67;14.37;;;;;;;0.44;73.67;99728.62;121330;1141;105167;-82
2021/01/27 08:44:07;;;;;;;38.30;18.50;;;;;;;0.40;73.53;99729.20;121507;1141;104343;-80
2021/01/27 08:46:43;;;;;;;37.00;17.30;;;;;;;0.36;73.90;99729.83;121529;1141;104439;-80
2021/01/27 08:49:33;;;;;;;35.00;16.40;;;;;;;0.32;74.21;99731.30;121261;1141;104411;-79
2021/01/27 08:52:38;;;;;;;38.13;17.70;;;;;;;0.30;74.23;99724.28;121201;1141;104535;-79
2021/01/27 08:55:34;;;;;;;36.63;16.30;;;;;;;0.30;74.62;99720.00;121083;1141;104492;-78
2021/01/27 08:58:20;;;;;;;35.90;17.07;;;;;;;0.26;74.48;99720.58;121289;1141;104398;-83
2021/01/27 09:00:50;;;;;;;41.20;18.87;;;;;;;0.26;74.17;99709.38;121482;1140;104378;-76
2021/01/27 09:03:51;;;;;;;36.80;15.87;;;;;;;0.26;74.55;99711.96;121319;1140;104436;-77
2021/01/27 09:06:30;;;;;;;38.07;18.27;;;;;;;0.25;74.45;99695.59;121494;1141;104401;-78
2021/01/27 09:09:23;;;;;;;36.83;16.50;;;;;;;0.24;74.53;99683.48;121366;1140;104342;-78
2021/01/27 09:12:01;;;;;;;39.30;17.37;;;;;;;0.25;74.14;99689.52;121479;1141;104509;-84
2021/01/27 09:14:36;;;;;;;38.30;16.70;;;;;;;0.26;74.91;99692.20;121385;1141;104344;-81
2021/01/27 09:17:07;;;;;;;41.43;17.93;;;;;;;0.28;74.62;99682.89;121138;1141;104386;-80
2021/01/27 09:19:38;;;;;;;33.47;15.90;;;;;;;0.33;74.11;99678.02;121291;1141;104562;-79
2021/01/27 09:22:23;;;;;;;33.73;15.17;;;;;;;0.37;74.85;99677.39;121424;1140;104420;-78
2021/01/27 09:24:56;;;;;;;37.70;17.33;;;;;;;0.42;75.00;99665.70;121368;1140;104515;-79
2021/01/27 09:27:33;;;;;;;36.73;17.33;;;;;;;0.50;74.69;99658.43;121972;1141;104354;-81
2021/01/27 09:30:07;;;;;;;34.60;15.60;;;;;;;0.62;74.46;99663.44;121354;1141;104335;-81
2021/01/27 09:32:41;;;;;;;39.80;18.90;;;;;;;0.63;74.17;99649.74;121400;1141;104380;-81
2021/01/27 09:35:20;;;;;;;39.47;18.43;;;;;;;0.63;74.52;99648.04;121384;1141;104360;-80
2021/01/27 09:37:56;;;;;;;38.40;16.97;;;;;;;0.67;74.68;99643.95;121234;1141;104364;-82
2021/01/27 09:40:31;;;;;;;37.13;18.60;;;;;;;0.69;74.45;99635.51;121269;1141;104527;-81
2021/01/27 09:43:04;;;;;;;32.93;16.47;;;;;;;0.71;74.61;99620.98;121219;1141;104396;-79
2021/01/27 09:45:39;;;;;;;39.17;17.03;;;;;;;0.74;74.53;99627.16;121319;1141;104348;-84
2021/01/27 09:48:12;;;;;;;37.63;17.23;;;;;;;0.77;74.51;99624.77;121228;1141;104376;-83
2021/01/27 09:50:48;;;;;;;34.95;17.15;;;;;;;0.76;74.69;99615.22;121140;1141;104395;-82
2021/01/27 09:53:26;;;;;;;40.87;19.63;;;;;;;0.81;74.72;99616.38;121274;1141;104344;-84
2021/01/27 09:55:56;;;;;;;38.83;17.60;;;;;;;0.94;74.79;99616.33;121319;1141;104464;-81
2021/01/27 09:58:27;;;;;;;38.40;19.20;;;;;;;1.02;74.71;99606.45;121264;1141;104412;-82
2021/01/27 10:01:03;;;;;;;35.57;16.90;;;;;;;1.06;74.50;99598.06;121285;1141;104366;-80
2021/01/27 10:03:38;;;;;;;41.47;19.10;;;;;;;0.98;74.64;99597.64;121068;1141;104359;-81
2021/01/27 10:06:34;;;;;;;35.90;19.00;;;;;;;0.95;74.54;99593.95;122140;1141;103043;-79
2021/01/27 10:09:09;;;;;;;44.23;22.73;;;;;;;0.88;74.70;99575.52;121278;1141;104367;-80
2021/01/27 10:11:41;;;;;;;40.60;19.13;;;;;;;0.89;75.01;99568.67;120862;1141;104375;-80
2021/01/27 10:14:14;;;;;;;40.97;18.03;;;;;;;0.94;75.03;99561.20;121037;1141;104362;-81
2021/01/27 10:16:51;;;;;;;38.00;18.43;;;;;;;0.93;75.00;99560.28;122903;1141;102078;-81
2021/01/27 10:19:25;;;;;;;38.60;19.47;;;;;;;0.94;75.01;99567.25;123282;1139;102077;-80
2021/01/27 10:21:58;;;;;;;38.60;19.20;;;;;;;0.99;75.18;99563.23;123113;1140;103158;-81
2021/01/27 10:24:50;;;;;;;49.65;20.88;;;;;;;0.99;75.14;99550.31;122261;1141;104335;-81
2021/01/27 10:27:31;;;;;;;46.37;21.10;;;;;;;1.01;74.87;99553.90;122835;1141;102191;-83
2021/01/27 10:30:05;;;;;;;36.93;18.17;;;;;;;1.05;75.39;99554.96;121200;1141;104495;-81
2021/01/27 10:32:43;;;;;;;35.20;16.63;;;;;;;1.08;75.31;99555.14;121324;1141;104387;-79
2021/01/27 10:35:31;;;;;;;37.67;16.70;;;;;;;1.09;75.01;99541.39;121234;1141;104956;-80
2021/01/27 10:38:22;;;;;;;37.53;17.13;;;;;;;1.07;75.06;99536.14;121090;1141;104519;-81
2021/01/27 10:41:07;;;;;;;35.40;17.37;;;;;;;1.07;75.23;99528.39;121231;1141;104468;-80
2021/01/27 10:43:39;;;;;;;32.77;15.70;;;;;;;1.16;75.36;99537.50;121215;1141;104751;-80
2021/01/27 10:46:31;;;;;;;33.40;15.23;;;;;;;1.18;75.00;99538.46;121304;1141;104338;-81
2021/01/27 10:49:01;;;;;;;41.17;19.07;;;;;;;1.18;75.21;99522.95;121395;1141;104401;-81
2021/01/27 10:51:33;;;;;;;34.27;16.50;;;;;;;1.19;75.03;99529.92;121249;1141;104423;-81
2021/01/27 10:54:03;;;;;;;32.70;14.73;;;;;;;1.19;75.69;99527.34;121355;1141;104348;-82
2021/01/27 10:56:35;;;;;;;36.87;19.47;;;;;;;1.17;75.18;99529.83;121275;1141;104470;-82
2021/01/27 10:59:05;;;;;;;36.23;17.23;;;;;;;1.19;75.07;99542.84;121348;1141;104344;-85
2021/01/27 11:01:34;;;;;;;35.97;16.97;;;;;;;1.20;75.56;99544.59;121057;1141;104433;-80
2021/01/27 11:04:04;;;;;;;39.80;17.30;;;;;;;1.16;75.50;99565.92;121267;1141;104407;-80
2021/01/27 11:06:33;;;;;;;34.05;15.75;;;;;;;1.09;75.75;99536.23;120867;1141;104446;-83
2021/01/27 11:09:14;;;;;;;35.20;16.67;;;;;;;0.99;75.78;99519.31;120832;1141;104372;-82
2021/01/27 11:11:44;;;;;;;34.83;16.93;;;;;;;1.02;75.51;99527.24;120459;1145;104388;-81
2021/01/27 11:14:14;;;;;;;35.00;16.90;;;;;;;0.95;75.44;99526.80;120650;1144;104388;-82
2021/01/27 11:16:43;;;;;;;33.40;15.60;;;;;;;0.89;75.80;99517.90;120577;1145;104823;-82
2021/01/27 11:19:16;;;;;;;30.87;14.90;;;;;;;0.86;75.60;99511.67;120460;1144;104505;-83
2021/01/27 11:21:46;;;;;;;37.00;17.00;;;;;;;0.87;75.61;99513.43;120585;1145;104404;-82
2021/01/27 11:24:16;;;;;;;38.37;17.57;;;;;;;0.86;75.87;99522.00;120533;1148;104567;-83
2021/01/27 11:26:49;;;;;;;37.37;17.97;;;;;;;0.80;75.61;99517.36;120611;1144;104560;-84
2021/01/27 11:29:19;;;;;;;35.13;16.53;;;;;;;0.75;75.90;99512.71;120507;1145;104528;-84
2021/01/27 11:31:57;;;;;;;34.03;15.13;;;;;;;0.73;75.63;99512.63;120838;1145;104787;-86
2021/01/27 11:34:32;;;;;;;30.88;14.73;;;;;;;0.68;76.11;99501.14;120788;1144;104508;-83
2021/01/27 11:37:02;;;;;;;34.85;15.75;;;;;;;0.65;76.03;99496.67;120687;1144;102874;-81
2021/01/27 11:39:35;;;;;;;39.27;17.67;;;;;;;0.64;76.32;99483.67;120894;1144;104665;-82
2021/01/27 11:42:10;;;;;;;34.70;15.83;;;;;;;0.64;76.24;99481.09;120704;1144;104975;-83
2021/01/27 11:44:40;;;;;;;36.57;18.30;;;;;;;0.63;76.12;99487.96;120819;1144;104531;-82
2021/01/27 11:47:11;;;;;;;34.97;15.90;;;;;;;0.65;76.30;99483.77;120981;1144;104655;-81
2021/01/27 11:49:44;;;;;;;36.30;18.17;;;;;;;0.66;76.04;99500.17;120850;1143;104649;-80
2021/01/27 11:52:15;;;;;;;36.33;17.35;;;;;;;0.68;76.26;99504.61;120935;1142;104439;-82
2021/01/27 11:54:48;;;;;;;31.57;12.90;;;;;;;0.65;76.32;99491.52;120987;1142;104601;-79
2021/01/27 11:57:20;;;;;;;36.10;15.38;;;;;;;0.61;76.48;99484.41;120970;1144;104504;-80